sensor_id;sensor_type;location;lat;lon;timestamp;P1;durP1;ratioP1;P2;durP2;ratioP2
24685;SDS011;12804;51.176;4.452;2023-03-02T00:04:13;11.63;;;7.10;;
24685;SDS011;12804;51.176;4.452;2023-03-02T00:06:44;9.23;;;6.05;;
24685;SDS011;12804;51.176;4.452;2023-03-02T00:09:12;7.90;;;5.38;;
24685;SDS011;12804;51.176;4.452;2023-03-02T00:11:38;10.23;;;5.72;;
24685;SDS011;12804;51.176;4.452;2023-03-02T00:14:05;7.72;;;5.70;;
24685;SDS011;12804;51.176;4.452;2023-03-02T00:16:31;8.63;;;6.05;;
24685;SDS011;12804;51.176;4.452;2023-03-02T00:18:57;7.47;;;5.30;;
24685;SDS011;12804;51.176;4.452;2023-03-02T00:21:23;10.48;;;6.53;;
24685;SDS011;12804;51.176;4.452;2023-03-02T00:23:50;7.57;;;5.47;;
24685;SDS011;12804;51.176;4.452;2023-03-02T00:26:16;9.27;;;5.88;;
24685;SDS011;12804;51.176;4.452;2023-03-02T00:28:43;9.05;;;5.50;;
24685;SDS011;12804;51.176;4.452;2023-03-02T00:31:09;8.93;;;5.32;;
24685;SDS011;12804;51.176;4.452;2023-03-02T00:33:35;8.45;;;5.40;;
24685;SDS011;12804;51.176;4.452;2023-03-02T00:36:01;8.85;;;5.40;;
24685;SDS011;12804;51.176;4.452;2023-03-02T00:38:27;8.60;;;5.72;;
24685;SDS011;12804;51.176;4.452;2023-03-02T00:40:53;9.32;;;5.93;;
24685;SDS011;12804;51.176;4.452;2023-03-02T00:43:20;8.10;;;5.65;;
24685;SDS011;12804;51.176;4.452;2023-03-02T00:45:51;10.18;;;5.75;;
24685;SDS011;12804;51.176;4.452;2023-03-02T00:48:20;8.88;;;5.28;;
24685;SDS011;12804;51.176;4.452;2023-03-02T00:50:46;9.77;;;5.53;;
24685;SDS011;12804;51.176;4.452;2023-03-02T00:53:12;8.50;;;5.30;;
24685;SDS011;12804;51.176;4.452;2023-03-02T00:55:38;9.68;;;6.10;;
24685;SDS011;12804;51.176;4.452;2023-03-02T00:58:04;9.15;;;5.60;;
24685;SDS011;12804;51.176;4.452;2023-03-02T01:00:30;7.88;;;5.55;;
24685;SDS011;12804;51.176;4.452;2023-03-02T01:03:03;9.63;;;5.72;;
24685;SDS011;12804;51.176;4.452;2023-03-02T01:05:29;8.05;;;5.80;;
24685;SDS011;12804;51.176;4.452;2023-03-02T01:07:55;9.20;;;5.95;;
24685;SDS011;12804;51.176;4.452;2023-03-02T01:10:21;7.03;;;5.70;;
24685;SDS011;12804;51.176;4.452;2023-03-02T01:12:47;10.68;;;6.40;;
24685;SDS011;12804;51.176;4.452;2023-03-02T01:15:13;9.05;;;5.85;;
24685;SDS011;12804;51.176;4.452;2023-03-02T01:17:39;7.18;;;5.75;;
24685;SDS011;12804;51.176;4.452;2023-03-02T01:20:07;7.78;;;5.88;;
24685;SDS011;12804;51.176;4.452;2023-03-02T01:22:33;9.45;;;6.22;;
24685;SDS011;12804;51.176;4.452;2023-03-02T01:24:59;10.57;;;6.13;;
24685;SDS011;12804;51.176;4.452;2023-03-02T01:27:25;8.90;;;5.72;;
24685;SDS011;12804;51.176;4.452;2023-03-02T01:29:51;9.20;;;5.75;;
24685;SDS011;12804;51.176;4.452;2023-03-02T01:32:17;9.60;;;6.07;;
24685;SDS011;12804;51.176;4.452;2023-03-02T01:34:42;9.02;;;6.13;;
24685;SDS011;12804;51.176;4.452;2023-03-02T01:37:08;9.35;;;5.53;;
24685;SDS011;12804;51.176;4.452;2023-03-02T01:39:34;8.48;;;5.72;;
24685;SDS011;12804;51.176;4.452;2023-03-02T01:42:00;9.15;;;5.93;;
24685;SDS011;12804;51.176;4.452;2023-03-02T01:50:18;7.93;;;5.50;;
24685;SDS011;12804;51.176;4.452;2023-03-02T01:52:51;9.10;;;5.63;;
24685;SDS011;12804;51.176;4.452;2023-03-02T01:55:20;8.90;;;5.68;;
24685;SDS011;12804;51.176;4.452;2023-03-02T01:57:49;8.48;;;5.45;;
24685;SDS011;12804;51.176;4.452;2023-03-02T02:00:24;8.40;;;6.07;;
24685;SDS011;12804;51.176;4.452;2023-03-02T02:02:54;8.88;;;5.88;;
24685;SDS011;12804;51.176;4.452;2023-03-02T02:05:34;10.25;;;6.20;;
24685;SDS011;12804;51.176;4.452;2023-03-02T02:08:03;8.40;;;5.75;;
24685;SDS011;12804;51.176;4.452;2023-03-02T02:10:30;10.25;;;5.97;;
24685;SDS011;12804;51.176;4.452;2023-03-02T02:12:57;9.90;;;5.53;;
24685;SDS011;12804;51.176;4.452;2023-03-02T02:15:22;10.05;;;6.38;;
24685;SDS011;12804;51.176;4.452;2023-03-02T02:17:49;9.63;;;5.97;;
24685;SDS011;12804;51.176;4.452;2023-03-02T02:23:05;11.27;;;6.25;;
24685;SDS011;12804;51.176;4.452;2023-03-02T02:28:37;7.43;;;5.90;;
24685;SDS011;12804;51.176;4.452;2023-03-02T02:33:37;9.85;;;5.93;;
24685;SDS011;12804;51.176;4.452;2023-03-02T02:36:12;8.68;;;6.13;;
24685;SDS011;12804;51.176;4.452;2023-03-02T02:38:41;12.05;;;6.35;;
24685;SDS011;12804;51.176;4.452;2023-03-02T02:41:16;9.18;;;5.90;;
24685;SDS011;12804;51.176;4.452;2023-03-02T02:43:45;9.18;;;6.10;;
24685;SDS011;12804;51.176;4.452;2023-03-02T02:46:11;11.48;;;6.22;;
24685;SDS011;12804;51.176;4.452;2023-03-02T02:48:37;9.25;;;5.68;;
24685;SDS011;12804;51.176;4.452;2023-03-02T02:51:04;8.98;;;6.13;;
24685;SDS011;12804;51.176;4.452;2023-03-02T02:56:09;9.23;;;5.90;;
24685;SDS011;12804;51.176;4.452;2023-03-02T02:58:39;9.88;;;5.82;;
24685;SDS011;12804;51.176;4.452;2023-03-02T03:01:18;7.75;;;5.55;;
24685;SDS011;12804;51.176;4.452;2023-03-02T03:04:00;10.90;;;6.35;;
24685;SDS011;12804;51.176;4.452;2023-03-02T03:06:29;8.65;;;5.93;;
24685;SDS011;12804;51.176;4.452;2023-03-02T03:09:06;10.50;;;6.45;;
24685;SDS011;12804;51.176;4.452;2023-03-02T03:11:39;8.18;;;6.03;;
24685;SDS011;12804;51.176;4.452;2023-03-02T03:14:09;10.10;;;6.47;;
24685;SDS011;12804;51.176;4.452;2023-03-02T03:16:38;9.75;;;6.10;;
24685;SDS011;12804;51.176;4.452;2023-03-02T03:19:08;9.10;;;6.20;;
24685;SDS011;12804;51.176;4.452;2023-03-02T03:21:52;8.52;;;5.90;;
24685;SDS011;12804;51.176;4.452;2023-03-02T03:24:21;12.15;;;6.40;;
24685;SDS011;12804;51.176;4.452;2023-03-02T03:26:48;11.50;;;6.25;;
24685;SDS011;12804;51.176;4.452;2023-03-02T03:29:16;11.10;;;6.25;;
24685;SDS011;12804;51.176;4.452;2023-03-02T03:31:43;8.77;;;5.97;;
24685;SDS011;12804;51.176;4.452;2023-03-02T03:34:11;9.93;;;6.40;;
24685;SDS011;12804;51.176;4.452;2023-03-02T03:36:36;10.32;;;6.65;;
24685;SDS011;12804;51.176;4.452;2023-03-02T03:39:03;10.52;;;6.28;;
24685;SDS011;12804;51.176;4.452;2023-03-02T03:41:31;7.43;;;5.40;;
24685;SDS011;12804;51.176;4.452;2023-03-02T03:43:57;8.23;;;6.00;;
24685;SDS011;12804;51.176;4.452;2023-03-02T03:46:23;11.80;;;6.38;;
24685;SDS011;12804;51.176;4.452;2023-03-02T03:48:50;8.98;;;6.25;;
24685;SDS011;12804;51.176;4.452;2023-03-02T03:51:16;9.80;;;5.68;;
24685;SDS011;12804;51.176;4.452;2023-03-02T03:53:44;8.32;;;5.90;;
24685;SDS011;12804;51.176;4.452;2023-03-02T03:56:10;10.90;;;6.30;;
24685;SDS011;12804;51.176;4.452;2023-03-02T03:58:36;8.98;;;6.38;;
24685;SDS011;12804;51.176;4.452;2023-03-02T04:01:03;8.75;;;5.90;;
24685;SDS011;12804;51.176;4.452;2023-03-02T04:03:29;11.57;;;6.30;;
24685;SDS011;12804;51.176;4.452;2023-03-02T04:05:55;12.13;;;6.20;;
24685;SDS011;12804;51.176;4.452;2023-03-02T04:08:21;9.50;;;6.00;;
24685;SDS011;12804;51.176;4.452;2023-03-02T04:10:47;9.95;;;6.30;;
24685;SDS011;12804;51.176;4.452;2023-03-02T04:13:13;8.38;;;6.28;;
24685;SDS011;12804;51.176;4.452;2023-03-02T04:15:39;9.50;;;6.35;;
24685;SDS011;12804;51.176;4.452;2023-03-02T04:18:06;9.52;;;6.45;;
24685;SDS011;12804;51.176;4.452;2023-03-02T04:20:34;11.43;;;7.00;;
24685;SDS011;12804;51.176;4.452;2023-03-02T04:23:00;9.98;;;6.63;;
24685;SDS011;12804;51.176;4.452;2023-03-02T04:25:27;9.45;;;6.13;;
24685;SDS011;12804;51.176;4.452;2023-03-02T04:28:09;10.35;;;6.53;;
24685;SDS011;12804;51.176;4.452;2023-03-02T04:30:37;11.20;;;6.97;;
24685;SDS011;12804;51.176;4.452;2023-03-02T04:33:03;10.30;;;6.75;;
24685;SDS011;12804;51.176;4.452;2023-03-02T04:35:31;12.27;;;7.75;;
24685;SDS011;12804;51.176;4.452;2023-03-02T04:37:58;9.95;;;7.03;;
24685;SDS011;12804;51.176;4.452;2023-03-02T04:40:24;11.75;;;7.97;;
24685;SDS011;12804;51.176;4.452;2023-03-02T04:42:50;14.95;;;7.90;;
24685;SDS011;12804;51.176;4.452;2023-03-02T04:45:16;13.77;;;8.75;;
24685;SDS011;12804;51.176;4.452;2023-03-02T04:47:42;17.25;;;9.82;;
24685;SDS011;12804;51.176;4.452;2023-03-02T04:50:10;14.75;;;9.43;;
24685;SDS011;12804;51.176;4.452;2023-03-02T04:52:37;16.10;;;9.25;;
24685;SDS011;12804;51.176;4.452;2023-03-02T04:55:04;19.00;;;10.57;;
24685;SDS011;12804;51.176;4.452;2023-03-02T04:57:30;23.45;;;11.55;;
24685;SDS011;12804;51.176;4.452;2023-03-02T04:59:56;18.63;;;11.02;;
24685;SDS011;12804;51.176;4.452;2023-03-02T05:02:23;19.90;;;11.82;;
24685;SDS011;12804;51.176;4.452;2023-03-02T05:04:48;21.65;;;12.63;;
24685;SDS011;12804;51.176;4.452;2023-03-02T05:07:14;20.90;;;11.93;;
24685;SDS011;12804;51.176;4.452;2023-03-02T05:09:40;21.90;;;12.45;;
24685;SDS011;12804;51.176;4.452;2023-03-02T05:12:06;21.33;;;12.77;;
24685;SDS011;12804;51.176;4.452;2023-03-02T05:14:32;22.42;;;13.18;;
24685;SDS011;12804;51.176;4.452;2023-03-02T05:16:58;25.75;;;13.82;;
24685;SDS011;12804;51.176;4.452;2023-03-02T05:19:24;26.48;;;14.43;;
24685;SDS011;12804;51.176;4.452;2023-03-02T05:21:50;25.10;;;14.10;;
24685;SDS011;12804;51.176;4.452;2023-03-02T05:24:16;27.95;;;15.02;;
24685;SDS011;12804;51.176;4.452;2023-03-02T05:26:42;27.98;;;15.43;;
24685;SDS011;12804;51.176;4.452;2023-03-02T05:29:08;27.98;;;15.65;;
24685;SDS011;12804;51.176;4.452;2023-03-02T05:31:35;28.17;;;15.68;;
24685;SDS011;12804;51.176;4.452;2023-03-02T05:34:06;30.45;;;15.18;;
24685;SDS011;12804;51.176;4.452;2023-03-02T05:36:33;31.67;;;16.25;;
24685;SDS011;12804;51.176;4.452;2023-03-02T05:39:00;29.33;;;16.63;;
24685;SDS011;12804;51.176;4.452;2023-03-02T05:41:26;26.52;;;15.57;;
24685;SDS011;12804;51.176;4.452;2023-03-02T05:43:52;31.27;;;16.30;;
24685;SDS011;12804;51.176;4.452;2023-03-02T05:46:18;30.92;;;16.27;;
24685;SDS011;12804;51.176;4.452;2023-03-02T05:48:44;33.20;;;17.33;;
24685;SDS011;12804;51.176;4.452;2023-03-02T05:51:10;31.15;;;17.27;;
24685;SDS011;12804;51.176;4.452;2023-03-02T05:53:36;30.30;;;16.58;;
24685;SDS011;12804;51.176;4.452;2023-03-02T05:56:02;30.80;;;17.42;;
24685;SDS011;12804;51.176;4.452;2023-03-02T05:58:28;31.80;;;17.35;;
24685;SDS011;12804;51.176;4.452;2023-03-02T06:00:54;35.70;;;18.35;;
24685;SDS011;12804;51.176;4.452;2023-03-02T06:03:20;38.78;;;19.85;;
24685;SDS011;12804;51.176;4.452;2023-03-02T06:05:46;36.83;;;19.58;;
24685;SDS011;12804;51.176;4.452;2023-03-02T06:08:15;37.55;;;19.55;;
24685;SDS011;12804;51.176;4.452;2023-03-02T06:10:41;37.20;;;19.20;;
24685;SDS011;12804;51.176;4.452;2023-03-02T06:13:07;36.08;;;19.10;;
24685;SDS011;12804;51.176;4.452;2023-03-02T06:15:33;37.13;;;20.25;;
24685;SDS011;12804;51.176;4.452;2023-03-02T06:17:59;35.55;;;19.33;;
24685;SDS011;12804;51.176;4.452;2023-03-02T06:20:25;36.33;;;19.17;;
24685;SDS011;12804;51.176;4.452;2023-03-02T06:22:51;40.63;;;20.80;;
24685;SDS011;12804;51.176;4.452;2023-03-02T06:25:21;42.20;;;20.65;;
24685;SDS011;12804;51.176;4.452;2023-03-02T06:27:48;37.42;;;19.98;;
24685;SDS011;12804;51.176;4.452;2023-03-02T06:30:17;41.80;;;20.83;;
24685;SDS011;12804;51.176;4.452;2023-03-02T06:32:44;38.20;;;20.20;;
24685;SDS011;12804;51.176;4.452;2023-03-02T06:35:11;40.05;;;21.23;;
24685;SDS011;12804;51.176;4.452;2023-03-02T06:37:37;42.42;;;21.05;;
24685;SDS011;12804;51.176;4.452;2023-03-02T06:40:03;46.22;;;22.88;;
24685;SDS011;12804;51.176;4.452;2023-03-02T06:42:34;42.92;;;22.58;;
24685;SDS011;12804;51.176;4.452;2023-03-02T06:45:00;40.50;;;21.60;;
24685;SDS011;12804;51.176;4.452;2023-03-02T06:47:26;41.97;;;21.70;;
24685;SDS011;12804;51.176;4.452;2023-03-02T06:49:52;37.67;;;20.50;;
24685;SDS011;12804;51.176;4.452;2023-03-02T06:52:18;37.63;;;20.27;;
24685;SDS011;12804;51.176;4.452;2023-03-02T06:54:44;42.70;;;22.58;;
24685;SDS011;12804;51.176;4.452;2023-03-02T06:57:09;41.35;;;21.88;;
24685;SDS011;12804;51.176;4.452;2023-03-02T06:59:35;44.22;;;22.50;;
24685;SDS011;12804;51.176;4.452;2023-03-02T07:02:01;40.72;;;21.85;;
24685;SDS011;12804;51.176;4.452;2023-03-02T07:04:27;40.58;;;21.23;;
24685;SDS011;12804;51.176;4.452;2023-03-02T07:06:54;44.88;;;23.23;;
24685;SDS011;12804;51.176;4.452;2023-03-02T07:09:20;43.72;;;22.83;;
24685;SDS011;12804;51.176;4.452;2023-03-02T07:11:46;46.53;;;22.65;;
24685;SDS011;12804;51.176;4.452;2023-03-02T07:14:12;41.75;;;21.75;;
24685;SDS011;12804;51.176;4.452;2023-03-02T07:16:38;42.42;;;21.98;;
24685;SDS011;12804;51.176;4.452;2023-03-02T07:19:04;43.67;;;22.55;;
24685;SDS011;12804;51.176;4.452;2023-03-02T07:21:29;49.47;;;23.88;;
24685;SDS011;12804;51.176;4.452;2023-03-02T07:23:55;45.60;;;23.27;;
24685;SDS011;12804;51.176;4.452;2023-03-02T07:26:21;46.15;;;23.75;;
24685;SDS011;12804;51.176;4.452;2023-03-02T07:28:47;36.42;;;18.10;;
24685;SDS011;12804;51.176;4.452;2023-03-02T07:31:13;46.85;;;24.27;;
24685;SDS011;12804;51.176;4.452;2023-03-02T07:33:39;44.58;;;23.80;;
24685;SDS011;12804;51.176;4.452;2023-03-02T07:36:05;44.15;;;22.95;;
24685;SDS011;12804;51.176;4.452;2023-03-02T07:38:32;41.50;;;22.17;;
24685;SDS011;12804;51.176;4.452;2023-03-02T07:40:58;42.17;;;22.27;;
24685;SDS011;12804;51.176;4.452;2023-03-02T07:43:24;43.85;;;22.67;;
24685;SDS011;12804;51.176;4.452;2023-03-02T07:45:52;46.65;;;23.40;;
24685;SDS011;12804;51.176;4.452;2023-03-02T07:48:18;44.03;;;23.45;;
24685;SDS011;12804;51.176;4.452;2023-03-02T07:50:47;44.45;;;23.15;;
24685;SDS011;12804;51.176;4.452;2023-03-02T07:53:13;39.83;;;21.80;;
24685;SDS011;12804;51.176;4.452;2023-03-02T07:55:39;44.20;;;23.20;;
24685;SDS011;12804;51.176;4.452;2023-03-02T07:58:05;46.08;;;23.90;;
24685;SDS011;12804;51.176;4.452;2023-03-02T08:00:31;43.63;;;22.45;;
24685;SDS011;12804;51.176;4.452;2023-03-02T08:02:58;45.92;;;22.95;;
24685;SDS011;12804;51.176;4.452;2023-03-02T08:05:23;45.28;;;22.52;;
24685;SDS011;12804;51.176;4.452;2023-03-02T08:07:49;47.30;;;23.25;;
24685;SDS011;12804;51.176;4.452;2023-03-02T08:10:15;43.15;;;22.80;;
24685;SDS011;12804;51.176;4.452;2023-03-02T08:12:41;47.45;;;24.05;;
24685;SDS011;12804;51.176;4.452;2023-03-02T08:15:08;44.83;;;22.63;;
24685;SDS011;12804;51.176;4.452;2023-03-02T08:17:34;47.95;;;24.10;;
24685;SDS011;12804;51.176;4.452;2023-03-02T08:20:00;45.10;;;23.48;;
24685;SDS011;12804;51.176;4.452;2023-03-02T08:22:27;41.70;;;22.98;;
24685;SDS011;12804;51.176;4.452;2023-03-02T08:24:53;42.65;;;23.17;;
24685;SDS011;12804;51.176;4.452;2023-03-02T08:27:19;47.97;;;23.65;;
24685;SDS011;12804;51.176;4.452;2023-03-02T08:29:44;43.10;;;23.23;;
24685;SDS011;12804;51.176;4.452;2023-03-02T08:32:10;42.38;;;22.85;;
24685;SDS011;12804;51.176;4.452;2023-03-02T08:34:36;45.47;;;23.27;;
24685;SDS011;12804;51.176;4.452;2023-03-02T08:37:02;43.83;;;22.67;;
24685;SDS011;12804;51.176;4.452;2023-03-02T08:39:28;42.40;;;22.35;;
24685;SDS011;12804;51.176;4.452;2023-03-02T08:41:55;41.67;;;22.33;;
24685;SDS011;12804;51.176;4.452;2023-03-02T08:44:22;43.78;;;22.73;;
24685;SDS011;12804;51.176;4.452;2023-03-02T08:46:48;43.67;;;22.50;;
24685;SDS011;12804;51.176;4.452;2023-03-02T08:49:16;38.83;;;21.25;;
24685;SDS011;12804;51.176;4.452;2023-03-02T08:51:43;45.53;;;22.75;;
24685;SDS011;12804;51.176;4.452;2023-03-02T08:54:10;42.88;;;23.33;;
24685;SDS011;12804;51.176;4.452;2023-03-02T08:56:37;40.95;;;21.23;;
24685;SDS011;12804;51.176;4.452;2023-03-02T08:59:06;40.30;;;21.98;;
24685;SDS011;12804;51.176;4.452;2023-03-02T09:01:35;39.50;;;20.90;;
24685;SDS011;12804;51.176;4.452;2023-03-02T09:04:03;39.05;;;20.20;;
24685;SDS011;12804;51.176;4.452;2023-03-02T09:06:31;38.72;;;20.02;;
24685;SDS011;12804;51.176;4.452;2023-03-02T09:08:59;40.05;;;20.08;;
24685;SDS011;12804;51.176;4.452;2023-03-02T09:11:26;36.47;;;19.15;;
24685;SDS011;12804;51.176;4.452;2023-03-02T09:13:52;38.45;;;19.48;;
24685;SDS011;12804;51.176;4.452;2023-03-02T09:16:19;33.17;;;18.90;;
24685;SDS011;12804;51.176;4.452;2023-03-02T09:18:45;35.03;;;19.10;;
24685;SDS011;12804;51.176;4.452;2023-03-02T09:21:11;36.03;;;19.48;;
24685;SDS011;12804;51.176;4.452;2023-03-02T09:23:37;36.33;;;18.65;;
24685;SDS011;12804;51.176;4.452;2023-03-02T09:26:03;35.00;;;19.35;;
24685;SDS011;12804;51.176;4.452;2023-03-02T09:28:30;31.98;;;17.73;;
24685;SDS011;12804;51.176;4.452;2023-03-02T09:30:57;29.83;;;16.65;;
24685;SDS011;12804;51.176;4.452;2023-03-02T09:33:24;30.80;;;17.45;;
24685;SDS011;12804;51.176;4.452;2023-03-02T09:35:50;30.98;;;16.92;;
24685;SDS011;12804;51.176;4.452;2023-03-02T09:38:16;30.00;;;16.17;;
24685;SDS011;12804;51.176;4.452;2023-03-02T09:46:45;31.75;;;17.08;;
24685;SDS011;12804;51.176;4.452;2023-03-02T09:55:15;29.95;;;16.42;;
24685;SDS011;12804;51.176;4.452;2023-03-02T09:57:50;26.75;;;16.17;;
24685;SDS011;12804;51.176;4.452;2023-03-02T10:00:18;29.92;;;17.13;;
24685;SDS011;12804;51.176;4.452;2023-03-02T10:02:56;28.35;;;16.23;;
24685;SDS011;12804;51.176;4.452;2023-03-02T10:08:26;25.13;;;15.48;;
24685;SDS011;12804;51.176;4.452;2023-03-02T10:10:56;33.40;;;16.15;;
24685;SDS011;12804;51.176;4.452;2023-03-02T10:13:29;28.67;;;16.05;;
24685;SDS011;12804;51.176;4.452;2023-03-02T10:21:04;30.38;;;15.25;;
24685;SDS011;12804;51.176;4.452;2023-03-02T10:23:43;28.08;;;15.63;;
24685;SDS011;12804;51.176;4.452;2023-03-02T10:32:34;25.83;;;15.07;;
24685;SDS011;12804;51.176;4.452;2023-03-02T10:35:21;27.67;;;14.52;;
24685;SDS011;12804;51.176;4.452;2023-03-02T10:38:08;23.75;;;13.98;;
24685;SDS011;12804;51.176;4.452;2023-03-02T10:40:44;25.15;;;14.80;;
24685;SDS011;12804;51.176;4.452;2023-03-02T10:43:26;23.83;;;15.10;;
24685;SDS011;12804;51.176;4.452;2023-03-02T10:46:00;23.60;;;14.50;;
24685;SDS011;12804;51.176;4.452;2023-03-02T10:48:28;23.73;;;14.98;;
24685;SDS011;12804;51.176;4.452;2023-03-02T10:50:55;24.45;;;15.38;;
24685;SDS011;12804;51.176;4.452;2023-03-02T10:53:22;29.48;;;16.38;;
24685;SDS011;12804;51.176;4.452;2023-03-02T10:55:50;23.73;;;15.02;;
24685;SDS011;12804;51.176;4.452;2023-03-02T11:00:56;23.35;;;15.05;;
24685;SDS011;12804;51.176;4.452;2023-03-02T11:03:26;23.30;;;15.38;;
24685;SDS011;12804;51.176;4.452;2023-03-02T11:05:53;23.15;;;14.70;;
24685;SDS011;12804;51.176;4.452;2023-03-02T11:08:21;24.52;;;14.98;;
24685;SDS011;12804;51.176;4.452;2023-03-02T11:11:02;22.98;;;14.50;;
24685;SDS011;12804;51.176;4.452;2023-03-02T11:13:30;21.73;;;14.82;;
24685;SDS011;12804;51.176;4.452;2023-03-02T11:16:01;20.95;;;14.02;;
24685;SDS011;12804;51.176;4.452;2023-03-02T11:18:53;23.58;;;15.27;;
24685;SDS011;12804;51.176;4.452;2023-03-02T11:21:31;24.50;;;14.70;;
24685;SDS011;12804;51.176;4.452;2023-03-02T11:24:27;21.83;;;13.80;;
24685;SDS011;12804;51.176;4.452;2023-03-02T11:27:01;21.20;;;14.23;;
24685;SDS011;12804;51.176;4.452;2023-03-02T11:34:52;20.90;;;14.23;;
24685;SDS011;12804;51.176;4.452;2023-03-02T11:42:38;20.70;;;13.60;;
24685;SDS011;12804;51.176;4.452;2023-03-02T11:45:16;22.20;;;14.05;;
24685;SDS011;12804;51.176;4.452;2023-03-02T11:47:56;21.88;;;14.23;;
24685;SDS011;12804;51.176;4.452;2023-03-02T11:50:52;18.23;;;13.15;;
24685;SDS011;12804;51.176;4.452;2023-03-02T11:53:22;18.75;;;13.88;;
24685;SDS011;12804;51.176;4.452;2023-03-02T11:55:57;21.15;;;13.93;;
24685;SDS011;12804;51.176;4.452;2023-03-02T11:58:24;18.65;;;13.13;;
24685;SDS011;12804;51.176;4.452;2023-03-02T12:00:52;24.73;;;14.15;;
24685;SDS011;12804;51.176;4.452;2023-03-02T12:03:34;21.52;;;14.07;;
24685;SDS011;12804;51.176;4.452;2023-03-02T12:06:21;21.20;;;13.82;;
24685;SDS011;12804;51.176;4.452;2023-03-02T12:08:51;19.52;;;14.10;;
24685;SDS011;12804;51.176;4.452;2023-03-02T12:16:35;19.60;;;13.85;;
24685;SDS011;12804;51.176;4.452;2023-03-02T12:21:57;19.45;;;12.85;;
24685;SDS011;12804;51.176;4.452;2023-03-02T12:24:25;21.08;;;13.60;;
24685;SDS011;12804;51.176;4.452;2023-03-02T12:27:00;18.70;;;13.48;;
24685;SDS011;12804;51.176;4.452;2023-03-02T12:29:49;18.23;;;13.25;;
24685;SDS011;12804;51.176;4.452;2023-03-02T12:32:26;18.48;;;12.75;;
24685;SDS011;12804;51.176;4.452;2023-03-02T12:37:46;20.85;;;12.93;;
24685;SDS011;12804;51.176;4.452;2023-03-02T12:48:29;20.38;;;12.63;;
24685;SDS011;12804;51.176;4.452;2023-03-02T12:51:11;16.58;;;11.52;;
24685;SDS011;12804;51.176;4.452;2023-03-02T12:53:42;19.13;;;12.52;;
24685;SDS011;12804;51.176;4.452;2023-03-02T12:56:08;17.30;;;11.43;;
24685;SDS011;12804;51.176;4.452;2023-03-02T12:58:34;17.45;;;11.40;;
24685;SDS011;12804;51.176;4.452;2023-03-02T13:01:01;21.30;;;11.30;;
24685;SDS011;12804;51.176;4.452;2023-03-02T13:03:28;18.05;;;11.20;;
24685;SDS011;12804;51.176;4.452;2023-03-02T13:06:02;15.75;;;10.93;;
24685;SDS011;12804;51.176;4.452;2023-03-02T13:08:35;16.48;;;10.18;;
24685;SDS011;12804;51.176;4.452;2023-03-02T13:11:01;16.73;;;11.38;;
24685;SDS011;12804;51.176;4.452;2023-03-02T13:13:48;17.13;;;11.07;;
24685;SDS011;12804;51.176;4.452;2023-03-02T13:16:18;16.70;;;11.45;;
24685;SDS011;12804;51.176;4.452;2023-03-02T13:18:47;19.50;;;11.90;;
24685;SDS011;12804;51.176;4.452;2023-03-02T13:21:18;14.43;;;10.50;;
24685;SDS011;12804;51.176;4.452;2023-03-02T13:23:45;16.92;;;10.65;;
24685;SDS011;12804;51.176;4.452;2023-03-02T13:29:19;17.15;;;11.20;;
24685;SDS011;12804;51.176;4.452;2023-03-02T13:31:45;18.23;;;11.05;;
24685;SDS011;12804;51.176;4.452;2023-03-02T13:34:21;18.55;;;11.25;;
24685;SDS011;12804;51.176;4.452;2023-03-02T13:36:49;16.50;;;11.30;;
24685;SDS011;12804;51.176;4.452;2023-03-02T13:39:25;18.25;;;11.70;;
24685;SDS011;12804;51.176;4.452;2023-03-02T13:41:56;18.33;;;11.73;;
24685;SDS011;12804;51.176;4.452;2023-03-02T13:44:30;17.63;;;11.85;;
24685;SDS011;12804;51.176;4.452;2023-03-02T13:46:58;17.58;;;12.13;;
24685;SDS011;12804;51.176;4.452;2023-03-02T13:49:28;17.17;;;11.45;;
24685;SDS011;12804;51.176;4.452;2023-03-02T13:52:02;15.65;;;11.10;;
24685;SDS011;12804;51.176;4.452;2023-03-02T13:54:29;18.50;;;11.65;;
24685;SDS011;12804;51.176;4.452;2023-03-02T13:56:57;16.70;;;10.48;;
24685;SDS011;12804;51.176;4.452;2023-03-02T13:59:24;16.75;;;10.82;;
24685;SDS011;12804;51.176;4.452;2023-03-02T14:01:51;17.17;;;11.48;;
24685;SDS011;12804;51.176;4.452;2023-03-02T14:04:17;20.00;;;12.10;;
24685;SDS011;12804;51.176;4.452;2023-03-02T14:06:52;15.98;;;11.13;;
24685;SDS011;12804;51.176;4.452;2023-03-02T14:09:19;14.85;;;11.50;;
24685;SDS011;12804;51.176;4.452;2023-03-02T14:11:46;16.67;;;11.68;;
24685;SDS011;12804;51.176;4.452;2023-03-02T14:14:23;18.35;;;11.40;;
24685;SDS011;12804;51.176;4.452;2023-03-02T14:16:51;17.48;;;12.13;;
24685;SDS011;12804;51.176;4.452;2023-03-02T14:19:17;17.58;;;12.18;;
24685;SDS011;12804;51.176;4.452;2023-03-02T14:21:44;18.15;;;11.93;;
24685;SDS011;12804;51.176;4.452;2023-03-02T14:24:12;21.20;;;12.30;;
24685;SDS011;12804;51.176;4.452;2023-03-02T14:26:42;19.63;;;11.50;;
24685;SDS011;12804;51.176;4.452;2023-03-02T14:31:49;15.43;;;11.38;;
24685;SDS011;12804;51.176;4.452;2023-03-02T14:34:15;15.27;;;10.75;;
24685;SDS011;12804;51.176;4.452;2023-03-02T14:36:45;16.25;;;11.27;;
24685;SDS011;12804;51.176;4.452;2023-03-02T14:41:51;14.00;;;10.88;;
24685;SDS011;12804;51.176;4.452;2023-03-02T14:44:17;16.30;;;11.90;;
24685;SDS011;12804;51.176;4.452;2023-03-02T14:46:43;16.30;;;11.52;;
24685;SDS011;12804;51.176;4.452;2023-03-02T14:49:09;17.15;;;11.77;;
24685;SDS011;12804;51.176;4.452;2023-03-02T14:51:35;14.00;;;10.88;;
24685;SDS011;12804;51.176;4.452;2023-03-02T14:54:05;17.38;;;11.70;;
24685;SDS011;12804;51.176;4.452;2023-03-02T14:56:35;16.52;;;11.07;;
24685;SDS011;12804;51.176;4.452;2023-03-02T14:59:01;16.45;;;11.88;;
24685;SDS011;12804;51.176;4.452;2023-03-02T15:01:28;15.93;;;11.25;;
24685;SDS011;12804;51.176;4.452;2023-03-02T15:03:53;15.85;;;11.23;;
24685;SDS011;12804;51.176;4.452;2023-03-02T15:06:27;15.95;;;12.25;;
24685;SDS011;12804;51.176;4.452;2023-03-02T15:08:55;16.98;;;12.15;;
24685;SDS011;12804;51.176;4.452;2023-03-02T15:11:23;18.95;;;11.95;;
24685;SDS011;12804;51.176;4.452;2023-03-02T15:13:49;18.05;;;11.63;;
24685;SDS011;12804;51.176;4.452;2023-03-02T15:16:15;18.02;;;11.05;;
24685;SDS011;12804;51.176;4.452;2023-03-02T15:18:41;16.08;;;10.68;;
24685;SDS011;12804;51.176;4.452;2023-03-02T15:21:08;15.13;;;9.82;;
24685;SDS011;12804;51.176;4.452;2023-03-02T15:23:39;16.63;;;10.38;;
24685;SDS011;12804;51.176;4.452;2023-03-02T15:26:05;16.58;;;10.15;;
24685;SDS011;12804;51.176;4.452;2023-03-02T15:28:31;16.95;;;10.18;;
24685;SDS011;12804;51.176;4.452;2023-03-02T15:30:57;16.42;;;9.85;;
24685;SDS011;12804;51.176;4.452;2023-03-02T15:33:29;17.33;;;10.30;;
24685;SDS011;12804;51.176;4.452;2023-03-02T15:35:55;15.93;;;8.95;;
24685;SDS011;12804;51.176;4.452;2023-03-02T15:38:21;16.23;;;9.32;;
24685;SDS011;12804;51.176;4.452;2023-03-02T15:40:47;15.30;;;9.65;;
24685;SDS011;12804;51.176;4.452;2023-03-02T15:43:13;15.25;;;8.82;;
24685;SDS011;12804;51.176;4.452;2023-03-02T15:45:42;16.55;;;8.90;;
24685;SDS011;12804;51.176;4.452;2023-03-02T15:48:10;14.30;;;8.48;;
24685;SDS011;12804;51.176;4.452;2023-03-02T15:50:36;11.63;;;7.80;;
24685;SDS011;12804;51.176;4.452;2023-03-02T15:53:02;14.20;;;7.95;;
24685;SDS011;12804;51.176;4.452;2023-03-02T15:55:29;13.80;;;7.88;;
24685;SDS011;12804;51.176;4.452;2023-03-02T15:57:55;14.68;;;8.18;;
24685;SDS011;12804;51.176;4.452;2023-03-02T16:00:22;11.88;;;7.82;;
24685;SDS011;12804;51.176;4.452;2023-03-02T16:02:48;14.45;;;8.45;;